Time;durP1;ratioP1;P1;durP2;ratioP2;P2;SDS_P1;SDS_P2;PMS_P1;PMS_P2;Temp;Humidity;BMP_temperature;BMP_pressure;BME280_temperature;BME280_humidity;BME280_pressure;Samples;Min_cycle;Max_cycle;Signal;HPM_P1;HPM_P2
2023/09/04 00:01:51;;;;;;;2.42;2.00;;;;;;;-145.69;48.44;51832.50;5133842;27;20207;-79
2023/09/04 00:04:17;;;;;;;2.78;2.10;;;;;;;-145.69;48.69;51842.38;5133884;27;20288;-82
2023/09/04 00:06:44;;;;;;;2.75;2.00;;;;;;;-145.69;48.50;51838.44;5133819;27;20224;-79
2023/09/04 00:09:14;;;;;;;2.78;2.00;;;;;;;-145.69;48.89;51840.41;5133357;27;20541;-80
2023/09/04 00:11:41;;;;;;;3.97;2.15;;;;;;;-145.69;48.54;51870.13;5134190;28;20204;-81
2023/09/04 00:14:07;;;;;;;2.20;1.67;;;;;;;-145.69;48.81;51858.22;5133225;27;20220;-80
2023/09/04 00:16:34;;;;;;;2.30;1.92;;;;;;;-145.69;48.36;51848.34;5133470;27;20690;-79
2023/09/04 00:19:04;;;;;;;4.00;2.35;;;;;;;-145.69;48.20;51844.38;5133109;28;20717;-79
2023/09/04 00:21:30;;;;;;;4.50;2.50;;;;;;;-145.69;48.39;51870.13;5133533;27;20193;-80
2023/09/04 00:23:57;;;;;;;3.35;2.35;;;;;;;-145.69;48.73;51889.91;5133858;28;20203;-80
2023/09/04 00:26:23;;;;;;;4.22;2.22;;;;;;;-145.69;48.46;51842.38;5133730;27;20208;-81
2023/09/04 00:28:50;;;;;;;2.78;2.17;;;;;;;-145.69;48.26;51836.44;5133550;27;20283;-82
2023/09/04 00:31:19;;;;;;;3.72;2.17;;;;;;;-145.69;47.81;51842.38;5133639;27;20670;-80
2023/09/04 00:33:45;;;;;;;4.63;2.00;;;;;;;-145.69;48.38;51846.34;5133318;28;20204;-80
2023/09/04 00:36:13;;;;;;;3.70;2.00;;;;;;;-145.69;48.07;51802.78;5133653;27;20224;-80
2023/09/04 00:38:40;;;;;;;6.50;2.28;;;;;;;-145.69;48.08;51846.34;5133333;27;20252;-80
2023/09/04 00:41:06;;;;;;;2.80;2.15;;;;;;;-145.69;48.43;51870.13;5133654;28;20280;-80
2023/09/04 00:43:36;;;;;;;5.00;2.33;;;;;;;-145.69;48.47;51866.16;5132966;27;20227;-80
2023/09/04 00:46:04;;;;;;;2.80;2.33;;;;;;;-145.69;48.82;51891.88;5133498;27;20275;-79
2023/09/04 00:48:31;;;;;;;3.40;2.38;;;;;;;-145.69;48.95;51854.28;5133145;27;20228;-80
2023/09/04 00:50:59;;;;;;;3.35;2.00;;;;;;;-145.69;49.31;51836.44;5133627;27;20299;-79
2023/09/04 00:53:28;;;;;;;3.53;2.20;;;;;;;-145.69;48.77;51850.31;5132872;27;20277;-80
2023/09/04 00:55:54;;;;;;;2.60;2.17;;;;;;;-145.69;49.21;51844.38;5133599;27;20193;-79
2023/09/04 00:58:24;;;;;;;4.18;2.30;;;;;;;-145.69;49.33;51842.38;5131680;27;20227;-79
2023/09/04 01:00:50;;;;;;;3.33;1.85;;;;;;;-145.69;49.20;51862.19;5133447;27;20291;-81
2023/09/04 01:03:18;;;;;;;2.40;2.10;;;;;;;-145.69;49.31;51870.13;5132851;27;20200;-81
2023/09/04 01:05:46;;;;;;;4.03;2.10;;;;;;;-145.69;49.02;51858.22;5134241;27;20554;-81
2023/09/04 01:08:16;;;;;;;4.00;2.15;;;;;;;-145.69;48.85;51844.38;5136752;27;20217;-82
2023/09/04 01:10:55;;;;;;;4.45;2.20;;;;;;;-145.69;49.34;51842.38;5136844;27;20189;-81
2023/09/04 01:13:25;;;;;;;3.15;2.13;;;;;;;-145.69;49.51;51846.34;5136844;27;20196;-79
2023/09/04 01:15:52;;;;;;;3.13;2.33;;;;;;;-145.69;49.20;51856.25;5136680;27;20718;-80
2023/09/04 01:18:19;;;;;;;3.17;2.00;;;;;;;-145.69;49.16;51842.38;5136978;27;20228;-80
2023/09/04 01:21:00;;;;;;;2.60;2.20;;;;;;;-145.69;48.58;51856.25;5137101;27;20196;-80
2023/09/04 01:23:26;;;;;;;2.90;2.25;;;;;;;-145.69;49.50;51862.19;5136779;27;20317;-80
2023/09/04 01:25:58;;;;;;;4.03;2.40;;;;;;;-145.69;49.40;51866.16;5136309;27;20199;-80
2023/09/04 01:28:29;;;;;;;4.18;2.33;;;;;;;-145.69;50.24;51874.06;5136271;27;20555;-81
2023/09/04 01:31:02;;;;;;;2.83;2.50;;;;;;;-145.69;50.21;51862.19;5136318;27;20651;-81
2023/09/04 01:33:37;;;;;;;4.82;2.20;;;;;;;-145.69;50.61;51858.22;5135698;27;20201;-80
2023/09/04 01:36:08;;;;;;;2.40;2.10;;;;;;;-145.69;50.79;51846.34;5135880;27;20671;-81
2023/09/04 01:38:36;;;;;;;2.60;2.10;;;;;;;-145.69;51.01;51858.22;5135737;27;20582;-80
2023/09/04 01:41:05;;;;;;;2.83;2.33;;;;;;;-145.69;51.40;51866.16;5136721;27;20193;-80
2023/09/04 01:43:32;;;;;;;2.97;2.10;;;;;;;-145.69;51.45;51882.00;5136211;27;20281;-80
2023/09/04 01:45:59;;;;;;;3.70;2.40;;;;;;;-145.69;51.52;51897.84;5136511;27;20196;-81
2023/09/04 01:48:25;;;;;;;4.85;2.33;;;;;;;-145.69;51.87;51882.00;5136215;27;20280;-80
2023/09/04 01:50:54;;;;;;;3.72;2.50;;;;;;;-145.69;51.74;51885.94;5136243;27;20742;-80
2023/09/04 01:53:23;;;;;;;3.25;2.40;;;;;;;-145.69;51.83;51874.06;5132382;27;20201;-79
2023/09/04 01:55:49;;;;;;;2.67;2.13;;;;;;;-145.69;52.01;51868.13;5136100;27;20193;-80
2023/09/04 01:58:18;;;;;;;3.88;2.20;;;;;;;-145.69;51.83;51866.16;5135385;27;20710;-79
2023/09/04 02:00:48;;;;;;;2.97;2.10;;;;;;;-145.69;51.35;51897.84;5136235;27;20196;-79
2023/09/04 02:03:19;;;;;;;2.45;2.17;;;;;;;-145.69;51.98;51846.34;5135671;27;20197;-80
2023/09/04 02:05:48;;;;;;;2.42;1.98;;;;;;;-145.69;52.11;51897.84;5136065;27;20192;-80
2023/09/04 02:08:15;;;;;;;2.90;2.30;;;;;;;-145.69;52.54;51876.06;5135820;27;20220;-79
2023/09/04 02:10:45;;;;;;;3.28;2.65;;;;;;;-145.69;52.31;51874.06;5136280;27;20222;-79
2023/09/04 02:13:12;;;;;;;3.53;2.25;;;;;;;-145.69;52.87;51874.06;5135917;27;20193;-79
2023/09/04 02:15:41;;;;;;;5.88;2.65;;;;;;;-145.69;52.67;51897.84;5135972;27;20208;-79
2023/09/04 02:18:08;;;;;;;6.47;2.83;;;;;;;-145.69;52.74;51876.06;5134878;27;20228;-80
2023/09/04 02:20:34;;;;;;;3.85;2.70;;;;;;;-145.69;53.05;51882.00;5135419;27;20657;-79
2023/09/04 02:23:04;;;;;;;3.00;2.40;;;;;;;-145.69;52.97;51899.81;5134938;27;20189;-80
2023/09/04 02:25:33;;;;;;;3.30;2.45;;;;;;;-145.69;53.48;51883.97;5135324;27;20201;-81
2023/09/04 02:28:01;;;;;;;4.05;2.55;;;;;;;-145.69;53.08;51880.00;5135349;27;20208;-80
2023/09/04 02:30:30;;;;;;;7.10;2.95;;;;;;;-145.69;52.90;51889.91;5135695;27;20250;-79
2023/09/04 02:32:58;;;;;;;3.10;2.63;;;;;;;-145.69;52.87;51870.13;5134625;27;20223;-80
2023/09/04 02:35:25;;;;;;;4.22;2.72;;;;;;;-145.69;52.80;51864.16;5135718;27;20254;-80
2023/09/04 02:37:52;;;;;;;3.08;2.45;;;;;;;-145.69;53.07;51862.19;5135172;27;20259;-81
2023/09/04 02:40:19;;;;;;;5.57;2.85;;;;;;;-145.69;53.02;51885.94;5135602;27;20199;-80
2023/09/04 02:42:45;;;;;;;5.07;2.70;;;;;;;-145.69;52.86;51905.75;5135030;27;20769;-80
2023/09/04 02:45:13;;;;;;;4.40;2.70;;;;;;;-145.69;52.49;51876.06;5135088;27;20225;-80
2023/09/04 02:47:40;;;;;;;3.80;2.58;;;;;;;-145.69;52.52;51880.00;5134783;27;20200;-81
2023/09/04 02:50:07;;;;;;;3.45;2.70;;;;;;;-145.69;52.68;51870.13;5135104;27;20193;-81
2023/09/04 02:52:34;;;;;;;6.35;2.65;;;;;;;-145.69;52.89;51880.00;5134755;27;20195;-80
2023/09/04 02:55:06;;;;;;;4.65;2.75;;;;;;;-145.69;52.31;51862.19;5135367;27;20208;-80
2023/09/04 02:57:35;;;;;;;4.13;2.88;;;;;;;-145.69;52.86;51887.94;5134592;27;20196;-81
2023/09/04 03:00:07;;;;;;;4.53;2.55;;;;;;;-145.69;52.46;51878.03;5134666;27;20239;-81
2023/09/04 03:02:38;;;;;;;3.33;2.60;;;;;;;-145.69;52.23;51905.75;5134173;27;20723;-80
2023/09/04 03:05:05;;;;;;;3.85;2.90;;;;;;;-145.69;52.92;51897.84;5134718;27;20547;-80
2023/09/04 03:07:32;;;;;;;3.90;2.90;;;;;;;-145.69;52.49;51882.00;5134737;27;20197;-80
2023/09/04 03:10:01;;;;;;;3.50;2.33;;;;;;;-145.69;52.21;51866.16;5134838;27;20248;-81
2023/09/04 03:12:30;;;;;;;4.35;2.63;;;;;;;-145.69;52.08;51882.00;5134564;27;20204;-81
2023/09/04 03:14:57;;;;;;;4.80;2.85;;;;;;;-145.69;52.44;51889.91;5134867;27;20197;-80
2023/09/04 03:17:24;;;;;;;3.80;2.50;;;;;;;-145.69;52.13;51882.00;5134551;27;20277;-81
2023/09/04 03:19:54;;;;;;;2.97;2.45;;;;;;;-145.69;51.79;51868.13;5134659;27;20234;-81
2023/09/04 03:22:20;;;;;;;3.75;2.50;;;;;;;-145.69;51.98;51891.88;5133795;27;20273;-81
2023/09/04 03:24:47;;;;;;;3.60;2.55;;;;;;;-145.69;52.08;51889.91;5134525;27;20273;-81
2023/09/04 03:27:14;;;;;;;4.43;2.47;;;;;;;-145.69;52.31;51870.13;5134287;27;20585;-81
2023/09/04 03:29:41;;;;;;;3.20;2.70;;;;;;;-145.69;52.62;51878.03;5134277;27;20193;-80
2023/09/04 03:32:07;;;;;;;3.65;2.70;;;;;;;-145.69;52.51;51893.88;5134125;27;20636;-80
2023/09/04 03:34:34;;;;;;;4.57;2.42;;;;;;;-145.69;52.71;51864.16;5134359;27;20237;-80
2023/09/04 03:37:04;;;;;;;4.03;2.50;;;;;;;-145.69;52.24;51897.84;5134334;27;20579;-80
2023/09/04 03:39:40;;;;;;;4.38;2.53;;;;;;;-145.69;51.96;51901.78;5133577;27;20220;-81
2023/09/04 03:42:13;;;;;;;4.18;2.70;;;;;;;-145.69;51.76;51911.69;5134128;27;20196;-79
2023/09/04 03:44:39;;;;;;;3.63;2.60;;;;;;;-145.69;52.41;51929.50;5134001;27;20430;-81
2023/09/04 03:47:06;;;;;;;4.13;2.80;;;;;;;-145.69;52.61;51909.72;5134230;27;20193;-81
2023/09/04 03:49:34;;;;;;;3.95;2.72;;;;;;;-145.69;52.42;51901.78;5134100;27;20551;-80
2023/09/04 03:52:02;;;;;;;2.80;2.50;;;;;;;-145.69;52.24;51883.97;5130408;27;20205;-80
2023/09/04 03:54:36;;;;;;;2.80;2.47;;;;;;;-145.69;52.26;51882.00;5133721;27;20253;-81
2023/09/04 03:57:03;;;;;;;4.43;3.03;;;;;;;-145.69;52.87;51891.88;5133960;27;20204;-80
2023/09/04 03:59:30;;;;;;;2.83;2.33;;;;;;;-145.69;52.70;51913.69;5133937;27;20260;-80
2023/09/04 04:01:59;;;;;;;4.88;3.05;;;;;;;-145.69;52.79;51891.88;5133468;27;20643;-80
2023/09/04 04:04:29;;;;;;;5.32;3.05;;;;;;;-145.69;52.36;51885.94;5133582;27;20200;-80
2023/09/04 04:06:56;;;;;;;4.13;3.10;;;;;;;-145.69;52.77;51895.84;5133859;27;20193;-80
2023/09/04 04:09:26;;;;;;;4.30;2.83;;;;;;;-145.69;52.80;51897.84;5134104;27;20203;-79
2023/09/04 04:11:53;;;;;;;3.75;2.60;;;;;;;-145.69;52.75;51913.69;5133830;27;20201;-79
2023/09/04 04:14:20;;;;;;;5.97;3.15;;;;;;;-145.69;53.84;51909.72;5133845;28;20232;-80
2023/09/04 04:16:46;;;;;;;7.68;3.22;;;;;;;-145.69;52.90;51947.34;5133866;28;20233;-80
2023/09/04 04:19:13;;;;;;;5.88;3.08;;;;;;;-145.69;52.91;51917.63;5133521;27;20228;-79
2023/09/04 04:21:40;;;;;;;4.15;2.90;;;;;;;-145.69;52.82;51887.94;5133676;28;20291;-80
2023/09/04 04:24:09;;;;;;;4.75;2.67;;;;;;;-145.69;52.72;51917.63;5133454;27;20197;-79
2023/09/04 04:26:39;;;;;;;4.47;3.03;;;;;;;-145.69;52.58;51901.78;5133211;27;20762;-80
2023/09/04 04:29:08;;;;;;;4.32;3.10;;;;;;;-145.69;52.62;51893.88;5133449;27;20200;-80
2023/09/04 04:31:35;;;;;;;4.18;3.40;;;;;;;-145.69;53.38;51909.72;5133184;27;20279;-80
2023/09/04 04:34:03;;;;;;;5.88;3.90;;;;;;;-145.69;53.45;51933.47;5133609;27;20700;-79
2023/09/04 04:36:38;;;;;;;4.15;3.22;;;;;;;-145.69;53.01;51889.91;5133557;27;20555;-80
2023/09/04 04:39:05;;;;;;;5.43;3.95;;;;;;;-145.69;53.00;51917.63;5133448;28;20235;-81
2023/09/04 04:41:32;;;;;;;4.60;3.50;;;;;;;-145.69;53.17;51925.56;5135451;27;20201;-80
2023/09/04 04:43:59;;;;;;;6.88;3.30;;;;;;;-145.69;53.04;51901.78;5136787;27;20759;-80
2023/09/04 04:46:26;;;;;;;5.55;3.47;;;;;;;-145.69;53.30;51937.44;5137813;27;20551;-81
2023/09/04 04:48:53;;;;;;;5.35;3.33;;;;;;;-145.69;53.59;51907.72;5137705;27;20563;-80
2023/09/04 04:51:19;;;;;;;4.43;3.15;;;;;;;-145.69;53.36;51907.72;5137247;27;20189;-80
2023/09/04 04:53:49;;;;;;;6.25;3.55;;;;;;;-145.69;53.71;51943.38;5137564;27;20292;-80
2023/09/04 04:56:16;;;;;;;4.13;3.35;;;;;;;-145.69;54.39;51933.47;5137441;27;20547;-80
2023/09/04 04:58:42;;;;;;;7.13;3.55;;;;;;;-145.69;53.48;51939.41;5137295;27;20269;-80
2023/09/04 05:01:12;;;;;;;5.45;3.88;;;;;;;-145.69;53.58;51957.25;5137506;27;20192;-80
2023/09/04 05:03:41;;;;;;;5.88;3.50;;;;;;;-145.69;53.85;51933.47;5136808;27;20648;-80
2023/09/04 05:06:09;;;;;;;6.38;4.32;;;;;;;-145.69;54.41;51953.28;5137194;27;20243;-80
2023/09/04 05:08:35;;;;;;;7.38;4.45;;;;;;;-145.69;53.88;51931.50;5137249;27;20208;-80
2023/09/04 05:11:04;;;;;;;6.05;4.05;;;;;;;-145.69;53.43;51921.59;5136794;27;20197;-80
2023/09/04 05:13:32;;;;;;;5.50;4.10;;;;;;;-145.69;53.75;51941.41;5137149;27;20207;-81
2023/09/04 05:16:04;;;;;;;7.13;4.07;;;;;;;-145.69;53.78;51921.59;5136625;27;20193;-80
2023/09/04 05:18:33;;;;;;;5.45;4.25;;;;;;;-145.69;54.46;51925.56;5137089;27;20204;-80
2023/09/04 05:20:59;;;;;;;7.28;4.25;;;;;;;-145.69;54.53;51895.84;5136342;27;20196;-80
2023/09/04 05:23:26;;;;;;;6.18;4.50;;;;;;;-145.69;54.49;51905.75;5136830;27;20201;-80
2023/09/04 05:25:57;;;;;;;6.88;4.72;;;;;;;-145.69;54.44;51923.56;5136765;27;20532;-80
2023/09/04 05:28:28;;;;;;;6.88;4.90;;;;;;;-145.69;54.51;51911.69;5137075;27;20205;-79
2023/09/04 05:31:01;;;;;;;8.23;5.13;;;;;;;-145.69;54.16;51947.34;5136581;27;20225;-79
2023/09/04 05:33:28;;;;;;;7.05;5.15;;;;;;;-145.69;54.49;51915.66;5136832;27;20559;-79
2023/09/04 05:35:56;;;;;;;7.57;4.53;;;;;;;-145.69;54.00;51905.75;5136731;27;20208;-80
2023/09/04 05:38:23;;;;;;;10.52;4.82;;;;;;;-145.69;53.64;51891.88;5136440;27;20552;-79
2023/09/04 05:41:00;;;;;;;6.53;4.57;;;;;;;-145.69;53.65;51913.69;5136619;27;20551;-80
2023/09/04 05:43:26;;;;;;;8.18;4.63;;;;;;;-145.69;54.71;51893.88;5124921;27;20474;-79
2023/09/04 05:45:59;;;;;;;6.38;4.57;;;;;;;-145.69;53.10;51878.03;5136171;27;20201;-79
2023/09/04 05:48:31;;;;;;;6.72;4.35;;;;;;;-145.69;53.35;51895.84;5136198;27;20276;-80
2023/09/04 05:50:59;;;;;;;6.55;4.18;;;;;;;-145.69;53.55;51921.59;5135536;27;20189;-79
2023/09/04 05:53:28;;;;;;;8.20;4.20;;;;;;;-145.69;54.16;51901.78;5134493;27;20443;-78
2023/09/04 05:56:05;;;;;;;5.95;4.00;;;;;;;-145.69;53.09;51893.88;5136108;27;20720;-79
2023/09/04 05:58:32;;;;;;;5.45;4.13;;;;;;;-145.69;53.00;51903.78;5119132;27;20229;-79
2023/09/04 06:00:58;;;;;;;6.53;4.10;;;;;;;-145.69;53.31;51895.84;5115656;27;20201;-80
2023/09/04 06:03:36;;;;;;;5.20;3.75;;;;;;;-145.69;52.81;51889.91;5133001;27;20560;-80
2023/09/04 06:06:04;;;;;;;5.50;3.60;;;;;;;-145.69;52.59;51895.84;5136411;27;20196;-79
2023/09/04 06:08:30;;;;;;;6.40;4.25;;;;;;;-145.69;52.33;51885.94;5135922;27;20280;-80
2023/09/04 06:10:57;;;;;;;5.60;3.80;;;;;;;-145.69;51.80;51919.63;5135745;27;20254;-80
2023/09/04 06:13:26;;;;;;;6.35;3.80;;;;;;;-145.69;51.77;51907.72;5135958;27;20200;-80
2023/09/04 06:15:54;;;;;;;6.05;3.97;;;;;;;-145.69;51.16;51882.00;5135668;27;20280;-79
2023/09/04 06:18:21;;;;;;;4.53;3.33;;;;;;;-145.69;51.26;51862.19;5136055;27;20205;-81
2023/09/04 06:20:48;;;;;;;5.25;3.72;;;;;;;-145.69;50.78;51870.13;5135398;27;20686;-79
2023/09/04 06:23:16;;;;;;;6.65;3.58;;;;;;;-145.69;51.12;51862.19;5135617;27;20288;-80
2023/09/04 06:25:46;;;;;;;6.53;3.50;;;;;;;-145.69;51.03;51876.06;5135744;27;20196;-81
2023/09/04 06:28:16;;;;;;;5.03;3.63;;;;;;;-145.69;50.75;51874.06;5135785;27;20295;-80
2023/09/04 06:30:44;;;;;;;6.25;3.50;;;;;;;-145.69;50.19;51878.03;5135710;27;20630;-78
2023/09/04 06:33:16;;;;;;;5.43;3.30;;;;;;;-145.69;49.46;51828.53;5135230;27;20242;-80
2023/09/04 06:35:43;;;;;;;6.05;3.70;;;;;;;-145.69;49.71;51885.94;5135601;27;20659;-80
2023/09/04 06:38:11;;;;;;;4.15;3.17;;;;;;;-145.69;49.71;51872.09;5135022;27;20651;-80
2023/09/04 06:40:42;;;;;;;4.90;3.10;;;;;;;-145.69;49.42;51878.03;5135184;27;20228;-80
2023/09/04 06:43:09;;;;;;;8.35;3.60;;;;;;;-145.69;49.62;51868.13;5134729;27;20224;-79
2023/09/04 06:45:37;;;;;;;4.68;3.17;;;;;;;-145.69;48.79;51866.16;5134959;27;20197;-81
2023/09/04 06:48:08;;;;;;;4.13;3.33;;;;;;;-145.69;48.92;51850.31;5134969;27;20659;-79
2023/09/04 06:50:35;;;;;;;4.45;3.17;;;;;;;-145.69;48.77;51870.13;5135470;27;20211;-80
2023/09/04 06:53:01;;;;;;;6.63;3.60;;;;;;;-145.69;48.69;51852.28;5134940;27;20193;-80
2023/09/04 06:55:28;;;;;;;4.13;2.95;;;;;;;-145.69;48.19;51866.16;5135011;27;20201;-81
2023/09/04 06:58:01;;;;;;;4.18;3.25;;;;;;;-145.69;48.04;51818.63;5134741;27;20224;-79
2023/09/04 07:00:29;;;;;;;5.65;3.10;;;;;;;-145.69;47.94;51854.28;5134719;27;20221;-79
2023/09/04 07:02:56;;;;;;;4.72;3.22;;;;;;;-145.69;47.68;51893.88;5127105;27;20580;-79
2023/09/04 07:05:23;;;;;;;4.03;3.08;;;;;;;-145.69;47.15;51830.50;5134264;27;20201;-79
2023/09/04 07:07:49;;;;;;;4.63;2.80;;;;;;;-145.69;46.86;51866.16;5134435;27;20253;-79
2023/09/04 07:10:18;;;;;;;3.97;2.78;;;;;;;-145.69;46.76;51842.38;5135114;27;20287;-80
2023/09/04 07:12:44;;;;;;;3.83;2.50;;;;;;;-145.69;47.09;51858.22;5134698;27;20802;-79
2023/09/04 07:15:13;;;;;;;5.45;2.80;;;;;;;-145.69;46.69;51862.19;5134802;27;20202;-78
2023/09/04 07:17:39;;;;;;;3.55;2.67;;;;;;;-145.69;46.56;51846.34;5134427;27;20197;-80
2023/09/04 07:20:07;;;;;;;3.55;2.65;;;;;;;-145.69;46.34;51828.53;5134307;27;20247;-80
2023/09/04 07:22:35;;;;;;;4.70;3.03;;;;;;;-145.69;45.62;51826.56;5134564;27;20671;-79
2023/09/04 07:25:05;;;;;;;3.63;2.70;;;;;;;-145.69;45.93;51832.50;5134892;27;20197;-80
2023/09/04 07:27:35;;;;;;;4.78;2.90;;;;;;;-145.69;45.32;51822.59;5134936;27;20250;-80
2023/09/04 07:30:09;;;;;;;4.05;2.58;;;;;;;-145.69;44.96;51856.25;5134260;27;20196;-79
2023/09/04 07:32:38;;;;;;;3.38;2.47;;;;;;;-145.69;44.74;51842.38;5134199;27;20195;-78
2023/09/04 07:35:06;;;;;;;4.15;2.83;;;;;;;-145.69;44.58;51802.78;5134403;27;20193;-80
2023/09/04 07:37:33;;;;;;;6.07;3.10;;;;;;;-145.69;44.54;51818.63;5134412;27;20560;-80
2023/09/04 07:39:59;;;;;;;4.00;2.58;;;;;;;-145.69;44.27;51838.44;5133855;27;20225;-80
2023/09/04 07:42:27;;;;;;;3.17;2.55;;;;;;;-145.69;44.23;51828.53;5133612;27;20556;-80
2023/09/04 07:44:54;;;;;;;4.20;2.42;;;;;;;-145.69;44.59;51786.94;5134187;27;20192;-80
2023/09/04 07:47:25;;;;;;;3.47;2.50;;;;;;;-145.69;43.98;51802.78;5134353;27;20204;-77
2023/09/04 07:49:55;;;;;;;3.92;2.45;;;;;;;-145.69;43.71;51832.50;5134247;27;20288;-79
2023/09/04 07:52:22;;;;;;;3.97;2.53;;;;;;;-145.69;43.89;51818.63;5133912;27;20249;-79
2023/09/04 07:54:50;;;;;;;4.93;2.38;;;;;;;-145.69;43.88;51838.44;5133882;27;20212;-78
2023/09/04 07:57:19;;;;;;;2.95;2.10;;;;;;;-145.69;43.52;51828.53;5134073;27;20336;-79
2023/09/04 07:59:54;;;;;;;3.55;2.58;;;;;;;-145.69;43.58;51822.59;5131866;27;20624;-78
2023/09/04 08:02:24;;;;;;;3.10;2.08;;;;;;;-145.69;43.23;51818.63;5133557;27;20288;-80
2023/09/04 08:04:54;;;;;;;3.00;2.40;;;;;;;-145.69;44.31;51848.34;5132947;27;20452;-79
2023/09/04 08:07:21;;;;;;;3.63;2.50;;;;;;;-145.69;43.08;51788.94;5134447;27;20287;-78
2023/09/04 08:09:51;;;;;;;3.70;2.60;;;;;;;-145.69;42.36;51826.56;5134156;27;20200;-79
2023/09/04 08:12:22;;;;;;;2.88;1.98;;;;;;;-145.69;42.60;51798.81;5132138;27;20656;-79
2023/09/04 08:14:51;;;;;;;3.10;2.17;;;;;;;-145.69;41.42;51816.66;5133585;27;20200;-79
2023/09/04 08:17:17;;;;;;;2.50;2.10;;;;;;;-145.69;41.62;51820.59;5133696;27;20249;-79
2023/09/04 08:19:45;;;;;;;2.40;2.05;;;;;;;-145.69;41.55;51769.13;5133863;28;20224;-80
2023/09/04 08:22:15;;;;;;;3.13;2.20;;;;;;;-145.69;41.10;51775.06;5133790;27;20196;-80
2023/09/04 08:24:41;;;;;;;3.20;1.95;;;;;;;-145.69;40.47;51779.03;5133700;27;20200;-80
2023/09/04 08:27:08;;;;;;;5.43;2.10;;;;;;;-145.69;40.14;51767.16;5130018;27;20964;-81
2023/09/04 08:29:36;;;;;;;3.67;1.63;;;;;;;-145.69;40.35;51816.66;5129392;28;20199;-79
2023/09/04 08:32:04;;;;;;;5.47;1.80;;;;;;;-145.69;39.73;51769.13;5133386;27;20215;-79
2023/09/04 08:34:32;;;;;;;2.38;1.73;;;;;;;-145.69;39.78;51806.75;5134008;27;20261;-80
2023/09/04 08:37:03;;;;;;;2.58;2.00;;;;;;;-145.69;39.73;51783.00;5133711;27;20593;-80
2023/09/04 08:39:31;;;;;;;3.30;1.77;;;;;;;-145.69;39.60;51771.09;5133752;27;20730;-81
2023/09/04 08:41:59;;;;;;;1.77;1.52;;;;;;;-145.69;38.52;51806.75;5133762;27;20199;-80
2023/09/04 08:44:27;;;;;;;2.53;1.85;;;;;;;-145.69;38.75;51788.94;5134015;27;20204;-79
2023/09/04 08:46:56;;;;;;;2.75;1.83;;;;;;;-145.69;39.37;51775.06;5134479;27;20209;-81
2023/09/04 08:49:25;;;;;;;2.58;1.90;;;;;;;-145.69;39.39;51765.16;5141787;27;20185;-81
2023/09/04 08:51:57;;;;;;;2.17;1.70;;;;;;;-145.69;38.44;51802.78;5133852;27;20598;-79
2023/09/04 08:54:25;;;;;;;2.95;1.80;;;;;;;-145.69;38.21;51788.94;5133253;27;20193;-80
2023/09/04 08:56:53;;;;;;;4.10;1.63;;;;;;;-145.69;38.63;51771.09;5133646;27;20660;-81
2023/09/04 08:59:19;;;;;;;2.22;1.65;;;;;;;-145.69;38.93;51794.88;5142337;27;20204;-80
2023/09/04 09:01:47;;;;;;;5.90;1.80;;;;;;;-145.69;38.86;51777.03;5133611;27;20221;-81
2023/09/04 09:04:15;;;;;;;3.28;1.73;;;;;;;-145.69;37.91;51777.03;5133230;27;20586;-80
2023/09/04 09:06:44;;;;;;;3.05;1.50;;;;;;;-145.69;37.55;51759.22;5133435;27;20332;-81
2023/09/04 09:09:10;;;;;;;4.50;1.63;;;;;;;-145.69;37.10;51779.03;5133895;27;20201;-80
2023/09/04 09:11:38;;;;;;;4.57;1.50;;;;;;;-145.69;37.39;51779.03;5133700;27;20283;-80
2023/09/04 09:14:06;;;;;;;2.63;1.80;;;;;;;-145.69;37.20;51779.03;5133507;27;20203;-80
2023/09/04 09:16:32;;;;;;;2.53;1.75;;;;;;;-145.69;37.78;51792.88;5133153;27;20211;-81
2023/09/04 09:18:59;;;;;;;2.40;1.65;;;;;;;-145.69;38.17;51777.03;5132914;27;20644;-79
2023/09/04 09:21:28;;;;;;;5.53;2.20;;;;;;;-145.69;38.11;51753.28;5134925;27;20567;-81
2023/09/04 09:24:21;;;;;;;2.03;1.30;;;;;;;-145.69;37.25;51755.25;5153899;27;20204;-80
2023/09/04 09:26:50;;;;;;;2.03;1.50;;;;;;;-145.69;37.86;51765.16;5109511;27;20572;-81
2023/09/04 09:29:19;;;;;;;2.42;1.83;;;;;;;-145.69;37.60;51775.06;5136851;27;20571;-81
2023/09/04 09:31:46;;;;;;;3.88;2.00;;;;;;;-145.69;38.21;51798.81;5136995;27;20204;-80
2023/09/04 09:34:12;;;;;;;2.92;2.10;;;;;;;-145.69;37.80;51771.09;5136881;27;20566;-80
2023/09/04 09:36:40;;;;;;;4.05;2.20;;;;;;;-145.69;38.52;51745.38;5136961;27;20188;-81
2023/09/04 09:39:06;;;;;;;2.83;1.98;;;;;;;-145.69;37.75;51739.44;5136436;27;20670;-80
2023/09/04 09:41:33;;;;;;;3.25;2.10;;;;;;;-145.69;38.71;51767.16;5136134;27;20231;-80
2023/09/04 09:44:01;;;;;;;3.15;2.00;;;;;;;-145.69;38.47;51769.13;5136452;27;20278;-79
2023/09/04 09:46:29;;;;;;;3.47;1.92;;;;;;;-145.69;38.17;51763.19;5137003;27;20200;-80
2023/09/04 09:48:56;;;;;;;2.92;2.13;;;;;;;-145.69;37.82;51767.16;5136451;27;20185;-81
2023/09/04 09:51:22;;;;;;;2.70;1.85;;;;;;;-145.69;36.98;51775.06;5134803;27;20220;-80
2023/09/04 09:53:50;;;;;;;2.80;1.90;;;;;;;-145.69;37.24;51775.06;5116067;28;20555;-80
2023/09/04 09:56:18;;;;;;;6.13;2.20;;;;;;;-145.69;37.02;51775.06;5115813;28;20571;-80
2023/09/04 09:58:46;;;;;;;2.90;1.70;;;;;;;-145.69;35.42;51747.34;5135265;27;20204;-80
2023/09/04 10:01:13;;;;;;;5.18;1.70;;;;;;;-145.69;35.73;51771.09;5136390;27;20236;-79
2023/09/04 10:03:43;;;;;;;6.40;1.92;;;;;;;-145.69;35.88;51751.31;5135611;27;20200;-81
2023/09/04 10:06:12;;;;;;;2.63;1.70;;;;;;;-145.69;35.62;51741.41;5135814;27;20196;-81
2023/09/04 10:08:40;;;;;;;2.47;1.50;;;;;;;-145.69;36.06;51751.31;5136162;27;20207;-81
2023/09/04 10:11:08;;;;;;;2.72;1.70;;;;;;;-145.69;35.37;51775.06;5133165;27;20544;-81
2023/09/04 10:13:41;;;;;;;3.05;1.75;;;;;;;-145.69;34.93;51755.25;5136023;27;20651;-80
2023/09/04 10:16:12;;;;;;;3.58;1.75;;;;;;;-145.69;35.53;51763.19;5136061;27;20224;-79
2023/09/04 10:18:44;;;;;;;2.88;1.90;;;;;;;-145.69;35.81;51743.38;5136230;27;20203;-78
2023/09/04 10:21:15;;;;;;;4.47;1.90;;;;;;;-145.69;35.58;51743.38;5135687;27;20224;-79
2023/09/04 10:23:49;;;;;;;5.45;1.88;;;;;;;-145.69;35.31;51707.75;5135921;27;20193;-82
2023/09/04 10:26:23;;;;;;;2.25;1.67;;;;;;;-145.69;35.31;51761.22;5133700;27;20196;-81
2023/09/04 10:28:58;;;;;;;2.00;1.52;;;;;;;-145.69;35.58;51743.38;5115955;27;20193;-81
2023/09/04 10:31:25;;;;;;;4.22;2.00;;;;;;;-145.69;36.16;51747.34;5122129;27;20192;-81
2023/09/04 10:33:54;;;;;;;2.30;1.67;;;;;;;-145.69;35.12;51713.69;5135033;27;20208;-79
2023/09/04 10:36:21;;;;;;;3.08;2.00;;;;;;;-145.69;35.37;51743.38;5135397;27;20208;-80
2023/09/04 10:38:48;;;;;;;2.10;1.73;;;;;;;-145.69;35.61;51735.47;5133581;27;20283;-80
2023/09/04 10:41:16;;;;;;;3.50;1.63;;;;;;;-145.69;35.00;51737.44;5134806;27;20686;-81
2023/09/04 10:43:44;;;;;;;4.18;1.92;;;;;;;-145.69;35.29;51755.25;5134828;27;20243;-81
2023/09/04 10:46:12;;;;;;;2.75;1.75;;;;;;;-145.69;35.70;51711.72;5134738;27;20655;-80
2023/09/04 10:48:42;;;;;;;3.50;1.50;;;;;;;-145.69;35.64;51719.63;5135015;27;20189;-81
2023/09/04 10:51:29;;;;;;;2.33;1.50;;;;;;;-145.69;34.88;51733.50;5135220;27;20250;-81
2023/09/04 10:54:00;;;;;;;2.67;1.65;;;;;;;-145.69;35.09;51695.88;5134440;27;20189;-80
2023/09/04 10:56:26;;;;;;;3.08;1.60;;;;;;;-145.69;35.12;51703.78;5134366;27;20551;-81
2023/09/04 10:59:02;;;;;;;2.17;1.55;;;;;;;-145.69;34.48;51727.53;5134804;27;20212;-81
2023/09/04 11:01:34;;;;;;;2.25;1.40;;;;;;;-145.69;33.97;51743.38;5134834;27;20212;-80
2023/09/04 11:04:02;;;;;;;4.80;2.13;;;;;;;-145.69;33.84;51703.78;5134350;27;20218;-82
2023/09/04 11:06:34;;;;;;;3.08;1.80;;;;;;;-145.69;33.85;51729.53;5134504;27;20193;-81
2023/09/04 11:09:02;;;;;;;4.40;1.75;;;;;;;-145.69;33.81;51753.28;5134978;27;20201;-81
2023/09/04 11:11:29;;;;;;;2.13;1.50;;;;;;;-145.69;34.19;51715.66;5134116;27;20184;-81
2023/09/04 11:13:57;;;;;;;2.97;1.60;;;;;;;-145.69;33.61;51709.72;5134338;27;20204;-81
2023/09/04 11:16:24;;;;;;;5.07;1.75;;;;;;;-145.69;34.13;51737.44;5134815;27;20379;-83
2023/09/04 11:19:01;;;;;;;2.72;1.80;;;;;;;-145.69;33.27;51747.34;5134880;27;20205;-81
2023/09/04 11:21:33;;;;;;;2.60;1.55;;;;;;;-145.69;33.63;51695.88;5134490;27;20216;-81
2023/09/04 11:24:00;;;;;;;2.95;1.52;;;;;;;-145.69;34.22;51680.03;5133732;27;20197;-81